sensor_id;sensor_type;location;lat;lon;timestamp;pressure;altitude;pressure_sealevel;temperature;humidity
34065;BME280;20339;49.754;20.158;2023-04-26T00:02:30;96006.68;;;6.07;83.40
34065;BME280;20339;49.754;20.158;2023-04-26T00:05:03;96009.15;;;6.07;83.77
34065;BME280;20339;49.754;20.158;2023-04-26T00:07:34;96011.84;;;6.07;83.70
34065;BME280;20339;49.754;20.158;2023-04-26T00:10:07;96011.08;;;6.03;83.44
34065;BME280;20339;49.754;20.158;2023-04-26T00:12:39;96012.87;;;6.01;83.45
34065;BME280;20339;49.754;20.158;2023-04-26T00:15:11;96012.77;;;6.00;83.61
34065;BME280;20339;49.754;20.158;2023-04-26T00:17:42;96019.34;;;6.03;83.66
34065;BME280;20339;49.754;20.158;2023-04-26T00:20:13;96017.34;;;6.02;83.28
34065;BME280;20339;49.754;20.158;2023-04-26T00:22:44;96017.19;;;5.99;83.22
34065;BME280;20339;49.754;20.158;2023-04-26T00:25:15;96019.83;;;6.00;83.27
34065;BME280;20339;49.754;20.158;2023-04-26T00:27:46;96011.45;;;6.01;83.31
34065;BME280;20339;49.754;20.158;2023-04-26T00:30:17;96012.45;;;5.98;83.27
34065;BME280;20339;49.754;20.158;2023-04-26T00:32:48;96007.52;;;5.96;83.11
34065;BME280;20339;49.754;20.158;2023-04-26T00:35:19;96013.95;;;5.93;83.08
34065;BME280;20339;49.754;20.158;2023-04-26T00:37:50;96015.21;;;5.93;83.28
34065;BME280;20339;49.754;20.158;2023-04-26T00:40:21;96017.58;;;5.93;83.17
34065;BME280;20339;49.754;20.158;2023-04-26T00:42:57;96022.78;;;5.92;83.38
34065;BME280;20339;49.754;20.158;2023-04-26T00:45:29;96023.52;;;5.88;83.20
34065;BME280;20339;49.754;20.158;2023-04-26T00:48:01;96025.48;;;5.89;83.27
34065;BME280;20339;49.754;20.158;2023-04-26T00:50:33;96025.77;;;5.89;83.41
34065;BME280;20339;49.754;20.158;2023-04-26T00:53:03;96026.73;;;5.87;83.48
34065;BME280;20339;49.754;20.158;2023-04-26T00:55:36;96030.15;;;5.85;83.11
34065;BME280;20339;49.754;20.158;2023-04-26T00:58:07;96024.79;;;5.82;83.33
34065;BME280;20339;49.754;20.158;2023-04-26T01:00:38;96034.46;;;5.77;83.23
34065;BME280;20339;49.754;20.158;2023-04-26T01:03:10;96030.35;;;5.76;83.33
34065;BME280;20339;49.754;20.158;2023-04-26T01:05:41;96027.49;;;5.76;83.04
34065;BME280;20339;49.754;20.158;2023-04-26T01:08:13;96030.82;;;5.73;82.94
34065;BME280;20339;49.754;20.158;2023-04-26T01:10:45;96030.82;;;5.71;82.76
34065;BME280;20339;49.754;20.158;2023-04-26T01:13:17;96031.23;;;5.71;82.63
34065;BME280;20339;49.754;20.158;2023-04-26T01:15:49;96030.88;;;5.69;82.38
34065;BME280;20339;49.754;20.158;2023-04-26T01:18:20;96041.13;;;5.68;82.15
34065;BME280;20339;49.754;20.158;2023-04-26T01:20:51;96039.08;;;5.66;81.65
34065;BME280;20339;49.754;20.158;2023-04-26T01:23:22;96041.48;;;5.63;81.11
34065;BME280;20339;49.754;20.158;2023-04-26T01:25:53;96040.37;;;5.62;81.01
34065;BME280;20339;49.754;20.158;2023-04-26T01:28:25;96042.84;;;5.62;81.01
34065;BME280;20339;49.754;20.158;2023-04-26T01:30:56;96044.62;;;5.61;80.57
34065;BME280;20339;49.754;20.158;2023-04-26T01:33:27;96046.09;;;5.62;80.15
34065;BME280;20339;49.754;20.158;2023-04-26T01:35:57;96045.14;;;5.62;79.75
34065;BME280;20339;49.754;20.158;2023-04-26T01:38:28;96041.52;;;5.58;78.43
34065;BME280;20339;49.754;20.158;2023-04-26T01:40:59;96046.52;;;5.56;77.55
34065;BME280;20339;49.754;20.158;2023-04-26T01:43:30;96049.20;;;5.56;77.83
34065;BME280;20339;49.754;20.158;2023-04-26T01:46:01;96053.14;;;5.54;76.52
34065;BME280;20339;49.754;20.158;2023-04-26T01:48:32;96058.61;;;5.52;76.27
34065;BME280;20339;49.754;20.158;2023-04-26T01:51:03;96053.77;;;5.52;76.56
34065;BME280;20339;49.754;20.158;2023-04-26T01:53:34;96058.98;;;5.52;75.93
34065;BME280;20339;49.754;20.158;2023-04-26T01:56:06;96055.19;;;5.50;75.19
34065;BME280;20339;49.754;20.158;2023-04-26T01:58:37;96061.48;;;5.49;75.56
34065;BME280;20339;49.754;20.158;2023-04-26T02:01:08;96069.10;;;5.48;74.67
34065;BME280;20339;49.754;20.158;2023-04-26T02:03:39;96053.99;;;5.43;74.62
34065;BME280;20339;49.754;20.158;2023-04-26T02:06:10;96064.40;;;5.37;73.96
34065;BME280;20339;49.754;20.158;2023-04-26T02:08:41;96064.16;;;5.31;74.42
34065;BME280;20339;49.754;20.158;2023-04-26T02:11:12;96071.88;;;5.28;74.54
34065;BME280;20339;49.754;20.158;2023-04-26T02:13:43;96070.45;;;5.23;74.32
34065;BME280;20339;49.754;20.158;2023-04-26T02:16:14;96072.57;;;5.20;74.52
34065;BME280;20339;49.754;20.158;2023-04-26T02:18:45;96074.72;;;5.16;74.68
34065;BME280;20339;49.754;20.158;2023-04-26T02:21:18;96072.23;;;5.09;74.21
34065;BME280;20339;49.754;20.158;2023-04-26T02:23:50;96074.87;;;5.04;74.45
34065;BME280;20339;49.754;20.158;2023-04-26T02:26:20;96074.02;;;5.00;75.03
34065;BME280;20339;49.754;20.158;2023-04-26T02:28:52;96082.73;;;4.95;75.02
34065;BME280;20339;49.754;20.158;2023-04-26T02:31:22;96079.10;;;4.91;75.16
34065;BME280;20339;49.754;20.158;2023-04-26T02:33:53;96081.63;;;4.90;75.22
34065;BME280;20339;49.754;20.158;2023-04-26T02:36:24;96079.60;;;4.93;75.12
34065;BME280;20339;49.754;20.158;2023-04-26T02:38:55;96077.56;;;4.93;75.45
34065;BME280;20339;49.754;20.158;2023-04-26T02:41:26;96076.27;;;4.96;75.50
34065;BME280;20339;49.754;20.158;2023-04-26T02:43:57;96067.48;;;4.97;75.80
34065;BME280;20339;49.754;20.158;2023-04-26T02:46:28;96068.80;;;4.99;75.89
34065;BME280;20339;49.754;20.158;2023-04-26T02:48:59;96073.13;;;4.99;76.33
34065;BME280;20339;49.754;20.158;2023-04-26T02:51:30;96073.64;;;4.96;76.54
34065;BME280;20339;49.754;20.158;2023-04-26T02:54:01;96074.59;;;4.97;76.74
34065;BME280;20339;49.754;20.158;2023-04-26T02:56:32;96073.06;;;4.99;77.30
34065;BME280;20339;49.754;20.158;2023-04-26T02:59:03;96078.32;;;5.00;77.31
34065;BME280;20339;49.754;20.158;2023-04-26T03:01:35;96076.65;;;5.02;77.47
34065;BME280;20339;49.754;20.158;2023-04-26T03:04:07;96080.27;;;5.01;77.54
34065;BME280;20339;49.754;20.158;2023-04-26T03:06:38;96088.14;;;4.97;77.78
34065;BME280;20339;49.754;20.158;2023-04-26T03:09:09;96087.89;;;4.93;77.73
34065;BME280;20339;49.754;20.158;2023-04-26T03:11:40;96092.23;;;4.89;78.09
34065;BME280;20339;49.754;20.158;2023-04-26T03:14:11;96084.95;;;4.81;77.88
34065;BME280;20339;49.754;20.158;2023-04-26T03:16:43;96095.23;;;4.72;77.99
34065;BME280;20339;49.754;20.158;2023-04-26T03:19:14;96106.59;;;4.65;77.94
34065;BME280;20339;49.754;20.158;2023-04-26T03:21:45;96096.41;;;4.60;77.61
34065;BME280;20339;49.754;20.158;2023-04-26T03:24:16;96104.55;;;4.60;77.51
34065;BME280;20339;49.754;20.158;2023-04-26T03:26:47;96113.06;;;4.60;77.12
34065;BME280;20339;49.754;20.158;2023-04-26T03:29:18;96110.85;;;4.60;77.20
34065;BME280;20339;49.754;20.158;2023-04-26T03:31:49;96114.23;;;4.62;77.19
34065;BME280;20339;49.754;20.158;2023-04-26T03:34:20;96117.95;;;4.62;77.12
34065;BME280;20339;49.754;20.158;2023-04-26T03:36:51;96119.46;;;4.60;76.96
34065;BME280;20339;49.754;20.158;2023-04-26T03:39:22;96119.23;;;4.55;76.77
34065;BME280;20339;49.754;20.158;2023-04-26T03:41:53;96121.25;;;4.50;76.91
34065;BME280;20339;49.754;20.158;2023-04-26T03:44:24;96120.47;;;4.47;76.82
34065;BME280;20339;49.754;20.158;2023-04-26T03:46:55;96130.21;;;4.43;76.82
34065;BME280;20339;49.754;20.158;2023-04-26T03:49:26;96131.50;;;4.39;76.94
34065;BME280;20339;49.754;20.158;2023-04-26T03:51:58;96135.42;;;4.33;76.96
34065;BME280;20339;49.754;20.158;2023-04-26T03:54:29;96133.82;;;4.29;77.04
34065;BME280;20339;49.754;20.158;2023-04-26T03:57:00;96139.15;;;4.27;77.06
34065;BME280;20339;49.754;20.158;2023-04-26T03:59:31;96136.04;;;4.31;77.21
34065;BME280;20339;49.754;20.158;2023-04-26T04:02:02;96139.98;;;4.31;76.93
34065;BME280;20339;49.754;20.158;2023-04-26T04:04:33;96143.10;;;4.28;76.85
34065;BME280;20339;49.754;20.158;2023-04-26T04:07:05;96148.31;;;4.30;77.11
34065;BME280;20339;49.754;20.158;2023-04-26T04:09:36;96144.89;;;4.35;77.04
34065;BME280;20339;49.754;20.158;2023-04-26T04:12:07;96140.60;;;4.42;76.69
34065;BME280;20339;49.754;20.158;2023-04-26T04:14:38;96149.84;;;4.43;76.63
34065;BME280;20339;49.754;20.158;2023-04-26T04:17:09;96154.88;;;4.43;76.63
34065;BME280;20339;49.754;20.158;2023-04-26T04:19:40;96153.77;;;4.49;76.49
34065;BME280;20339;49.754;20.158;2023-04-26T04:22:11;96158.95;;;4.59;76.22
34065;BME280;20339;49.754;20.158;2023-04-26T04:24:42;96158.55;;;4.64;75.77
34065;BME280;20339;49.754;20.158;2023-04-26T04:27:13;96163.83;;;4.66;75.80
34065;BME280;20339;49.754;20.158;2023-04-26T04:29:45;96168.69;;;4.79;75.74
34065;BME280;20339;49.754;20.158;2023-04-26T04:32:16;96171.17;;;5.30;75.52
34065;BME280;20339;49.754;20.158;2023-04-26T04:34:47;96172.03;;;5.96;73.54
34065;BME280;20339;49.754;20.158;2023-04-26T04:37:18;96180.41;;;6.52;71.92
34065;BME280;20339;49.754;20.158;2023-04-26T04:39:50;96177.12;;;7.10;70.71
34065;BME280;20339;49.754;20.158;2023-04-26T04:42:21;96182.38;;;7.21;67.05
34065;BME280;20339;49.754;20.158;2023-04-26T04:44:52;96177.42;;;7.20;65.26
34065;BME280;20339;49.754;20.158;2023-04-26T04:47:23;96183.45;;;7.10;64.59
34065;BME280;20339;49.754;20.158;2023-04-26T04:49:54;96186.41;;;7.04;63.98
34065;BME280;20339;49.754;20.158;2023-04-26T04:52:25;96187.30;;;7.16;63.33
34065;BME280;20339;49.754;20.158;2023-04-26T04:54:56;96185.68;;;6.88;62.61
34065;BME280;20339;49.754;20.158;2023-04-26T04:57:27;96189.89;;;6.99;63.51
34065;BME280;20339;49.754;20.158;2023-04-26T04:59:59;96189.41;;;7.55;63.16
34065;BME280;20339;49.754;20.158;2023-04-26T05:02:37;96190.13;;;8.49;61.35
34065;BME280;20339;49.754;20.158;2023-04-26T05:05:09;96199.16;;;8.92;60.70
34065;BME280;20339;49.754;20.158;2023-04-26T05:07:40;96199.82;;;9.81;61.64
34065;BME280;20339;49.754;20.158;2023-04-26T05:10:12;96190.82;;;10.15;58.25
34065;BME280;20339;49.754;20.158;2023-04-26T05:12:44;96205.52;;;9.77;56.62
34065;BME280;20339;49.754;20.158;2023-04-26T05:15:15;96200.40;;;9.95;57.11
34065;BME280;20339;49.754;20.158;2023-04-26T05:17:46;96211.34;;;9.92;56.85
34065;BME280;20339;49.754;20.158;2023-04-26T05:20:18;96213.52;;;9.36;56.08
34065;BME280;20339;49.754;20.158;2023-04-26T05:22:49;96219.54;;;9.38;56.19
34065;BME280;20339;49.754;20.158;2023-04-26T05:25:20;96212.02;;;10.05;54.36
34065;BME280;20339;49.754;20.158;2023-04-26T05:27:51;96219.54;;;9.74;53.60
34065;BME280;20339;49.754;20.158;2023-04-26T05:30:22;96228.50;;;9.32;54.75
34065;BME280;20339;49.754;20.158;2023-04-26T05:32:53;96221.27;;;10.56;56.32
34065;BME280;20339;49.754;20.158;2023-04-26T05:35:25;96219.96;;;12.33;52.55
34065;BME280;20339;49.754;20.158;2023-04-26T05:37:56;96209.77;;;12.18;49.59
34065;BME280;20339;49.754;20.158;2023-04-26T05:40:27;96221.77;;;10.01;50.65
34065;BME280;20339;49.754;20.158;2023-04-26T05:42:58;96227.57;;;9.54;54.12
34065;BME280;20339;49.754;20.158;2023-04-26T05:45:30;96219.69;;;10.95;55.58
34065;BME280;20339;49.754;20.158;2023-04-26T05:48:01;96223.90;;;11.52;52.83
34065;BME280;20339;49.754;20.158;2023-04-26T05:50:32;96220.70;;;11.16;50.19
34065;BME280;20339;49.754;20.158;2023-04-26T05:53:03;96232.84;;;9.49;51.61
34065;BME280;20339;49.754;20.158;2023-04-26T05:55:34;96233.12;;;8.08;54.03
34065;BME280;20339;49.754;20.158;2023-04-26T05:58:05;96239.31;;;7.77;55.80
34065;BME280;20339;49.754;20.158;2023-04-26T06:00:36;96237.43;;;7.67;56.38
34065;BME280;20339;49.754;20.158;2023-04-26T06:03:07;96236.64;;;7.44;56.72
34065;BME280;20339;49.754;20.158;2023-04-26T06:05:39;96235.31;;;7.24;57.72
34065;BME280;20339;49.754;20.158;2023-04-26T06:08:10;96240.94;;;7.32;58.45
34065;BME280;20339;49.754;20.158;2023-04-26T06:10:41;96240.41;;;7.31;57.91
34065;BME280;20339;49.754;20.158;2023-04-26T06:13:12;96241.65;;;6.94;58.96
34065;BME280;20339;49.754;20.158;2023-04-26T06:15:43;96243.53;;;6.38;59.90
34065;BME280;20339;49.754;20.158;2023-04-26T06:18:13;96253.11;;;5.94;61.27
34065;BME280;20339;49.754;20.158;2023-04-26T06:20:45;96258.70;;;5.77;62.05
34065;BME280;20339;49.754;20.158;2023-04-26T06:23:16;96256.20;;;5.70;62.99
34065;BME280;20339;49.754;20.158;2023-04-26T06:25:47;96262.56;;;5.61;63.14
34065;BME280;20339;49.754;20.158;2023-04-26T06:28:18;96258.16;;;5.83;63.62
34065;BME280;20339;49.754;20.158;2023-04-26T06:30:49;96256.98;;;6.13;63.70
34065;BME280;20339;49.754;20.158;2023-04-26T06:33:19;96257.35;;;6.53;63.21
34065;BME280;20339;49.754;20.158;2023-04-26T06:35:51;96254.10;;;6.53;62.62
34065;BME280;20339;49.754;20.158;2023-04-26T06:38:22;96252.07;;;6.44;62.27
34065;BME280;20339;49.754;20.158;2023-04-26T06:40:52;96258.23;;;6.25;62.52
34065;BME280;20339;49.754;20.158;2023-04-26T06:43:23;96256.39;;;6.21;62.52
34065;BME280;20339;49.754;20.158;2023-04-26T06:45:54;96260.97;;;6.24;62.94
34065;BME280;20339;49.754;20.158;2023-04-26T06:48:25;96256.85;;;6.65;63.48
34065;BME280;20339;49.754;20.158;2023-04-26T06:50:57;96256.99;;;7.05;62.72
34065;BME280;20339;49.754;20.158;2023-04-26T06:53:28;96260.94;;;7.17;62.73
34065;BME280;20339;49.754;20.158;2023-04-26T06:55:59;96259.09;;;7.19;62.08
34065;BME280;20339;49.754;20.158;2023-04-26T06:58:30;96260.14;;;6.94;61.47
34065;BME280;20339;49.754;20.158;2023-04-26T07:01:01;96262.95;;;6.92;63.36
34065;BME280;20339;49.754;20.158;2023-04-26T07:03:32;96259.04;;;7.94;62.65
34065;BME280;20339;49.754;20.158;2023-04-26T07:06:03;96255.73;;;10.09;61.42
34065;BME280;20339;49.754;20.158;2023-04-26T07:08:34;96249.54;;;10.90;55.20
34065;BME280;20339;49.754;20.158;2023-04-26T07:11:11;96243.98;;;11.48;55.60
34065;BME280;20339;49.754;20.158;2023-04-26T07:13:42;96248.34;;;12.86;54.66
34065;BME280;20339;49.754;20.158;2023-04-26T07:16:13;96246.36;;;12.61;48.34
34065;BME280;20339;49.754;20.158;2023-04-26T07:18:44;96234.66;;;12.25;47.95
34065;BME280;20339;49.754;20.158;2023-04-26T07:21:17;96241.63;;;11.20;48.03
34065;BME280;20339;49.754;20.158;2023-04-26T07:23:48;96246.65;;;12.88;51.51
34065;BME280;20339;49.754;20.158;2023-04-26T07:26:23;96243.29;;;14.92;49.65
34065;BME280;20339;49.754;20.158;2023-04-26T07:28:55;96238.13;;;15.39;46.46
34065;BME280;20339;49.754;20.158;2023-04-26T07:31:26;96254.34;;;13.78;46.73
34065;BME280;20339;49.754;20.158;2023-04-26T07:33:57;96250.73;;;12.85;46.79
34065;BME280;20339;49.754;20.158;2023-04-26T07:36:28;96254.13;;;14.47;46.96
34065;BME280;20339;49.754;20.158;2023-04-26T07:39:00;96245.50;;;16.92;44.28
34065;BME280;20339;49.754;20.158;2023-04-26T07:41:31;96246.74;;;19.05;44.71
34065;BME280;20339;49.754;20.158;2023-04-26T07:44:02;96240.48;;;20.45;41.31
34065;BME280;20339;49.754;20.158;2023-04-26T07:46:34;96251.73;;;17.91;37.70
34065;BME280;20339;49.754;20.158;2023-04-26T07:49:05;96251.11;;;15.29;39.89
34065;BME280;20339;49.754;20.158;2023-04-26T07:51:36;96260.45;;;16.26;41.43
34065;BME280;20339;49.754;20.158;2023-04-26T07:54:07;96257.55;;;17.91;38.72
34065;BME280;20339;49.754;20.158;2023-04-26T07:56:39;96249.66;;;17.34;35.58
34065;BME280;20339;49.754;20.158;2023-04-26T07:59:10;96263.71;;;13.92;36.54
34065;BME280;20339;49.754;20.158;2023-04-26T08:01:41;96268.39;;;11.53;40.64
34065;BME280;20339;49.754;20.158;2023-04-26T08:04:12;96268.94;;;10.42;43.11
34065;BME280;20339;49.754;20.158;2023-04-26T08:06:43;96282.87;;;9.79;44.61
34065;BME280;20339;49.754;20.158;2023-04-26T08:09:18;96272.91;;;11.22;45.38
34065;BME280;20339;49.754;20.158;2023-04-26T08:11:49;96262.14;;;11.80;43.10
34065;BME280;20339;49.754;20.158;2023-04-26T08:14:20;96277.69;;;10.82;43.07
34065;BME280;20339;49.754;20.158;2023-04-26T08:16:51;96279.13;;;11.09;45.26
34065;BME280;20339;49.754;20.158;2023-04-26T08:19:22;96266.55;;;13.20;42.94
34065;BME280;20339;49.754;20.158;2023-04-26T08:21:55;96277.55;;;14.62;40.26
34065;BME280;20339;49.754;20.158;2023-04-26T08:24:26;96269.77;;;16.00;40.07
34065;BME280;20339;49.754;20.158;2023-04-26T08:26:57;96262.42;;;15.62;36.29
34065;BME280;20339;49.754;20.158;2023-04-26T08:29:28;96262.48;;;15.32;36.51
34065;BME280;20339;49.754;20.158;2023-04-26T08:32:00;96275.90;;;13.05;37.74
34065;BME280;20339;49.754;20.158;2023-04-26T08:34:31;96284.76;;;11.08;40.42
34065;BME280;20339;49.754;20.158;2023-04-26T08:37:02;96296.66;;;9.74;42.71
34065;BME280;20339;49.754;20.158;2023-04-26T08:39:34;96294.77;;;8.83;43.98
34065;BME280;20339;49.754;20.158;2023-04-26T08:42:14;96293.34;;;8.15;45.57
34065;BME280;20339;49.754;20.158;2023-04-26T08:44:45;96306.13;;;7.95;47.24
34065;BME280;20339;49.754;20.158;2023-04-26T08:47:21;96301.27;;;8.13;47.47
34065;BME280;20339;49.754;20.158;2023-04-26T08:49:58;96299.73;;;7.98;47.56
34065;BME280;20339;49.754;20.158;2023-04-26T08:52:33;96298.88;;;7.60;48.19
34065;BME280;20339;49.754;20.158;2023-04-26T08:55:06;96302.20;;;7.73;49.31
34065;BME280;20339;49.754;20.158;2023-04-26T08:57:38;96302.31;;;9.17;47.65
34065;BME280;20339;49.754;20.158;2023-04-26T09:00:11;96291.89;;;8.94;47.01
34065;BME280;20339;49.754;20.158;2023-04-26T09:02:44;96292.88;;;8.26;48.26
34065;BME280;20339;49.754;20.158;2023-04-26T09:05:16;96294.71;;;7.84;48.90
34065;BME280;20339;49.754;20.158;2023-04-26T09:07:55;96292.98;;;7.40;49.75
34065;BME280;20339;49.754;20.158;2023-04-26T09:10:26;96297.89;;;7.01;51.09
34065;BME280;20339;49.754;20.158;2023-04-26T09:12:57;96302.03;;;6.82;51.72
34065;BME280;20339;49.754;20.158;2023-04-26T09:15:28;96298.56;;;6.90;52.20
34065;BME280;20339;49.754;20.158;2023-04-26T09:18:16;96299.52;;;7.42;51.58
34065;BME280;20339;49.754;20.158;2023-04-26T09:21:02;96290.33;;;7.54;50.40
34065;BME280;20339;49.754;20.158;2023-04-26T09:23:33;96298.69;;;7.31;50.15
34065;BME280;20339;49.754;20.158;2023-04-26T09:26:18;96294.10;;;7.17;49.92
34065;BME280;20339;49.754;20.158;2023-04-26T09:28:50;96294.73;;;6.98;50.37
34065;BME280;20339;49.754;20.158;2023-04-26T09:31:42;96299.05;;;6.92;51.13
34065;BME280;20339;49.754;20.158;2023-04-26T09:34:14;96297.63;;;7.11;51.16
34065;BME280;20339;49.754;20.158;2023-04-26T09:36:49;96296.36;;;7.30;50.59
34065;BME280;20339;49.754;20.158;2023-04-26T09:39:35;96297.58;;;7.05;50.36
34065;BME280;20339;49.754;20.158;2023-04-26T09:42:08;96302.56;;;6.61;51.98
34065;BME280;20339;49.754;20.158;2023-04-26T09:44:40;96305.98;;;6.41;52.24
34065;BME280;20339;49.754;20.158;2023-04-26T09:47:11;96298.41;;;6.38;52.98
34065;BME280;20339;49.754;20.158;2023-04-26T09:49:47;96301.56;;;6.39;52.80
34065;BME280;20339;49.754;20.158;2023-04-26T09:52:19;96297.33;;;6.73;53.06
34065;BME280;20339;49.754;20.158;2023-04-26T09:54:52;96294.09;;;7.16;52.85
34065;BME280;20339;49.754;20.158;2023-04-26T09:57:23;96287.40;;;7.35;52.10
34065;BME280;20339;49.754;20.158;2023-04-26T09:59:54;96295.23;;;7.57;52.33
34065;BME280;20339;49.754;20.158;2023-04-26T10:02:27;96294.89;;;7.70;52.01
34065;BME280;20339;49.754;20.158;2023-04-26T10:04:58;96300.13;;;7.65;52.11
34065;BME280;20339;49.754;20.158;2023-04-26T10:07:31;96308.80;;;7.52;51.51
34065;BME280;20339;49.754;20.158;2023-04-26T10:10:04;96306.72;;;7.92;51.66
34065;BME280;20339;49.754;20.158;2023-04-26T10:12:36;96303.63;;;8.47;52.38
34065;BME280;20339;49.754;20.158;2023-04-26T10:15:09;96295.27;;;9.09;50.27
34065;BME280;20339;49.754;20.158;2023-04-26T10:17:41;96289.27;;;9.07;49.47
34065;BME280;20339;49.754;20.158;2023-04-26T10:20:13;96283.35;;;8.91;48.15
34065;BME280;20339;49.754;20.158;2023-04-26T10:22:51;96275.64;;;8.56;47.61
34065;BME280;20339;49.754;20.158;2023-04-26T10:25:35;96283.69;;;8.24;48.41
34065;BME280;20339;49.754;20.158;2023-04-26T10:28:07;96284.85;;;8.26;48.74
34065;BME280;20339;49.754;20.158;2023-04-26T10:30:54;96286.10;;;8.44;48.78
34065;BME280;20339;49.754;20.158;2023-04-26T10:33:26;96295.62;;;8.90;49.66
34065;BME280;20339;49.754;20.158;2023-04-26T10:36:13;96289.05;;;8.92;48.20
34065;BME280;20339;49.754;20.158;2023-04-26T10:42:18;96327.20;;;7.94;50.90
34065;BME280;20339;49.754;20.158;2023-04-26T10:44:51;96327.05;;;7.56;51.90
34065;BME280;20339;49.754;20.158;2023-04-26T10:47:25;96338.13;;;7.16;52.25
34065;BME280;20339;49.754;20.158;2023-04-26T10:50:04;96342.45;;;6.66;54.33
34065;BME280;20339;49.754;20.158;2023-04-26T10:52:38;96342.13;;;6.07;56.18
34065;BME280;20339;49.754;20.158;2023-04-26T10:55:41;96336.21;;;5.73;58.35
34065;BME280;20339;49.754;20.158;2023-04-26T11:01:19;96338.14;;;5.60;60.51
34065;BME280;20339;49.754;20.158;2023-04-26T11:04:09;96337.41;;;5.70;60.52
34065;BME280;20339;49.754;20.158;2023-04-26T11:06:51;96336.20;;;5.78;60.52
34065;BME280;20339;49.754;20.158;2023-04-26T11:09:38;96344.53;;;5.82;59.49
34065;BME280;20339;49.754;20.158;2023-04-26T11:12:12;96346.78;;;5.95;59.48
34065;BME280;20339;49.754;20.158;2023-04-26T11:14:46;96342.46;;;6.11;57.91
34065;BME280;20339;49.754;20.158;2023-04-26T11:17:17;96350.01;;;6.17;57.78
34065;BME280;20339;49.754;20.158;2023-04-26T11:19:48;96351.48;;;6.27;57.12
34065;BME280;20339;49.754;20.158;2023-04-26T11:22:22;96341.52;;;6.23;55.16
34065;BME280;20339;49.754;20.158;2023-04-26T11:24:53;96348.71;;;6.09;53.33
34065;BME280;20339;49.754;20.158;2023-04-26T11:27:27;96353.57;;;6.04;53.13
34065;BME280;20339;49.754;20.158;2023-04-26T11:30:03;96354.84;;;6.05;53.17
34065;BME280;20339;49.754;20.158;2023-04-26T11:32:35;96356.52;;;6.11;53.21
34065;BME280;20339;49.754;20.158;2023-04-26T11:35:07;96359.58;;;6.15;53.39
34065;BME280;20339;49.754;20.158;2023-04-26T11:37:39;96362.48;;;6.24;53.73
34065;BME280;20339;49.754;20.158;2023-04-26T11:40:14;96358.73;;;6.34;53.95
34065;BME280;20339;49.754;20.158;2023-04-26T11:42:46;96357.45;;;6.43;53.77
34065;BME280;20339;49.754;20.158;2023-04-26T11:45:17;96357.80;;;6.41;53.03
34065;BME280;20339;49.754;20.158;2023-04-26T11:47:49;96362.23;;;6.43;53.59
34065;BME280;20339;49.754;20.158;2023-04-26T11:50:20;96364.90;;;6.48;53.83
34065;BME280;20339;49.754;20.158;2023-04-26T11:52:57;96366.60;;;6.51;53.59
34065;BME280;20339;49.754;20.158;2023-04-26T11:55:30;96360.91;;;6.53;52.50
34065;BME280;20339;49.754;20.158;2023-04-26T11:58:08;96360.75;;;6.50;52.01
34065;BME280;20339;49.754;20.158;2023-04-26T12:00:55;96358.75;;;6.49;51.28
34065;BME280;20339;49.754;20.158;2023-04-26T12:03:33;96360.80;;;6.52;50.29
34065;BME280;20339;49.754;20.158;2023-04-26T12:06:06;96357.38;;;6.70;51.25
34065;BME280;20339;49.754;20.158;2023-04-26T12:08:38;96352.46;;;7.19;51.04
34065;BME280;20339;49.754;20.158;2023-04-26T12:11:10;96346.88;;;7.44;49.52
34065;BME280;20339;49.754;20.158;2023-04-26T12:13:41;96351.27;;;7.42;49.44
34065;BME280;20339;49.754;20.158;2023-04-26T12:16:13;96345.93;;;7.29;49.42
34065;BME280;20339;49.754;20.158;2023-04-26T12:18:50;96356.14;;;7.11;49.81
34065;BME280;20339;49.754;20.158;2023-04-26T12:21:25;96357.79;;;6.84;50.39
34065;BME280;20339;49.754;20.158;2023-04-26T12:23:56;96367.07;;;6.68;50.89
34065;BME280;20339;49.754;20.158;2023-04-26T12:29:23;96367.71;;;6.54;51.39
34065;BME280;20339;49.754;20.158;2023-04-26T12:31:55;96369.45;;;6.55;51.64
34065;BME280;20339;49.754;20.158;2023-04-26T12:34:26;96372.20;;;6.62;51.68
34065;BME280;20339;49.754;20.158;2023-04-26T12:36:58;96374.18;;;6.70;51.86
34065;BME280;20339;49.754;20.158;2023-04-26T12:39:29;96372.95;;;6.76;51.94
34065;BME280;20339;49.754;20.158;2023-04-26T12:42:00;96370.70;;;6.88;52.47
34065;BME280;20339;49.754;20.158;2023-04-26T12:44:31;96372.20;;;6.93;51.83
34065;BME280;20339;49.754;20.158;2023-04-26T12:47:03;96367.03;;;6.90;51.66
34065;BME280;20339;49.754;20.158;2023-04-26T12:49:34;96372.64;;;6.88;51.80
34065;BME280;20339;49.754;20.158;2023-04-26T12:52:05;96367.06;;;6.86;51.27
34065;BME280;20339;49.754;20.158;2023-04-26T12:54:36;96363.17;;;6.88;51.62
34065;BME280;20339;49.754;20.158;2023-04-26T12:57:08;96365.64;;;7.07;51.90
34065;BME280;20339;49.754;20.158;2023-04-26T12:59:39;96365.45;;;7.43;51.72
34065;BME280;20339;49.754;20.158;2023-04-26T13:02:10;96368.51;;;7.56;51.07
34065;BME280;20339;49.754;20.158;2023-04-26T13:04:42;96365.56;;;7.43;50.41
34065;BME280;20339;49.754;20.158;2023-04-26T13:07:13;96369.23;;;7.20;50.48
34065;BME280;20339;49.754;20.158;2023-04-26T13:09:44;96373.21;;;7.02;50.83
34065;BME280;20339;49.754;20.158;2023-04-26T13:12:16;96381.91;;;6.81;51.08
34065;BME280;20339;49.754;20.158;2023-04-26T13:14:48;96375.54;;;6.62;50.52
34065;BME280;20339;49.754;20.158;2023-04-26T13:17:19;96374.20;;;6.44;49.77
34065;BME280;20339;49.754;20.158;2023-04-26T13:19:50;96380.55;;;6.26;49.07
34065;BME280;20339;49.754;20.158;2023-04-26T13:22:22;96382.34;;;6.29;49.19
34065;BME280;20339;49.754;20.158;2023-04-26T13:24:53;96380.23;;;6.36;48.65
34065;BME280;20339;49.754;20.158;2023-04-26T13:27:25;96380.61;;;6.52;48.79
34065;BME280;20339;49.754;20.158;2023-04-26T13:29:56;96379.85;;;6.78;49.48
34065;BME280;20339;49.754;20.158;2023-04-26T13:32:28;96377.81;;;7.04;49.10
34065;BME280;20339;49.754;20.158;2023-04-26T13:34:59;96372.07;;;7.10;47.70
34065;BME280;20339;49.754;20.158;2023-04-26T13:37:44;96378.13;;;7.05;47.72